sensor_id;sensor_type;location;lat;lon;timestamp;pressure;altitude;pressure_sealevel;temperature
64488;BMP280;50864;45.050;39.014;2022-09-27T00:00:25;100964.78;;;13.21
64488;BMP280;50864;45.050;39.014;2022-09-27T00:02:51;100962.09;;;13.21
64488;BMP280;50864;45.050;39.014;2022-09-27T00:05:17;100961.31;;;13.21
64488;BMP280;50864;45.050;39.014;2022-09-27T00:07:43;100951.34;;;13.21
64488;BMP280;50864;45.050;39.014;2022-09-27T00:10:11;100963.19;;;13.20
64488;BMP280;50864;45.050;39.014;2022-09-27T00:12:37;100961.91;;;13.18
64488;BMP280;50864;45.050;39.014;2022-09-27T00:15:04;100960.06;;;13.13
64488;BMP280;50864;45.050;39.014;2022-09-27T00:17:32;100957.97;;;13.10
64488;BMP280;50864;45.050;39.014;2022-09-27T00:19:58;100955.59;;;13.09
64488;BMP280;50864;45.050;39.014;2022-09-27T00:22:25;100953.69;;;13.09
64488;BMP280;50864;45.050;39.014;2022-09-27T00:24:51;100948.03;;;13.11
64488;BMP280;50864;45.050;39.014;2022-09-27T00:27:17;100956.91;;;13.11
64488;BMP280;50864;45.050;39.014;2022-09-27T00:29:44;100961.69;;;13.14
64488;BMP280;50864;45.050;39.014;2022-09-27T00:32:12;100964.06;;;13.16
64488;BMP280;50864;45.050;39.014;2022-09-27T00:34:39;100956.22;;;13.19
64488;BMP280;50864;45.050;39.014;2022-09-27T00:37:05;100959.41;;;13.21
64488;BMP280;50864;45.050;39.014;2022-09-27T00:39:31;100960.78;;;13.19
64488;BMP280;50864;45.050;39.014;2022-09-27T00:41:57;100951.44;;;13.16
64488;BMP280;50864;45.050;39.014;2022-09-27T00:49:36;100946.75;;;13.08
64488;BMP280;50864;45.050;39.014;2022-09-27T00:55:12;100955.91;;;13.07
64488;BMP280;50864;45.050;39.014;2022-09-27T00:57:41;100959.19;;;13.04
64488;BMP280;50864;45.050;39.014;2022-09-27T01:00:10;100950.59;;;13.02
64488;BMP280;50864;45.050;39.014;2022-09-27T01:02:39;100954.66;;;13.00
64488;BMP280;50864;45.050;39.014;2022-09-27T01:05:08;100945.78;;;12.99
64488;BMP280;50864;45.050;39.014;2022-09-27T01:07:34;100933.47;;;12.98
64488;BMP280;50864;45.050;39.014;2022-09-27T01:10:01;100943.75;;;12.96
64488;BMP280;50864;45.050;39.014;2022-09-27T01:15:33;100932.69;;;12.98
64488;BMP280;50864;45.050;39.014;2022-09-27T01:18:34;100934.75;;;13.01
64488;BMP280;50864;45.050;39.014;2022-09-27T01:21:24;100934.25;;;12.99
64488;BMP280;50864;45.050;39.014;2022-09-27T01:32:40;100941.97;;;13.05
64488;BMP280;50864;45.050;39.014;2022-09-27T01:40:42;100923.12;;;12.92
64488;BMP280;50864;45.050;39.014;2022-09-27T01:43:22;100931.19;;;12.92
64488;BMP280;50864;45.050;39.014;2022-09-27T01:45:56;100925.00;;;12.91
64488;BMP280;50864;45.050;39.014;2022-09-27T01:48:31;100919.63;;;12.91
64488;BMP280;50864;45.050;39.014;2022-09-27T01:51:08;100908.37;;;12.89
64488;BMP280;50864;45.050;39.014;2022-09-27T01:53:41;100909.97;;;12.90
64488;BMP280;50864;45.050;39.014;2022-09-27T01:56:21;100904.59;;;12.90
64488;BMP280;50864;45.050;39.014;2022-09-27T01:58:55;100915.91;;;12.87
64488;BMP280;50864;45.050;39.014;2022-09-27T02:01:25;100910.06;;;12.85
64488;BMP280;50864;45.050;39.014;2022-09-27T02:03:54;100914.16;;;12.82
64488;BMP280;50864;45.050;39.014;2022-09-27T02:06:29;100912.34;;;12.78
64488;BMP280;50864;45.050;39.014;2022-09-27T02:09:05;100904.84;;;12.75
64488;BMP280;50864;45.050;39.014;2022-09-27T02:11:38;100900.06;;;12.72
64488;BMP280;50864;45.050;39.014;2022-09-27T02:14:14;100901.47;;;12.69
64488;BMP280;50864;45.050;39.014;2022-09-27T02:16:52;100903.91;;;12.66
64488;BMP280;50864;45.050;39.014;2022-09-27T02:19:32;100899.66;;;12.65
64488;BMP280;50864;45.050;39.014;2022-09-27T02:24:52;100896.22;;;12.59
64488;BMP280;50864;45.050;39.014;2022-09-27T02:27:29;100904.09;;;12.56
64488;BMP280;50864;45.050;39.014;2022-09-27T02:30:03;100906.28;;;12.54
64488;BMP280;50864;45.050;39.014;2022-09-27T02:32:32;100916.28;;;12.48
64488;BMP280;50864;45.050;39.014;2022-09-27T02:35:06;100907.53;;;12.43
64488;BMP280;50864;45.050;39.014;2022-09-27T02:37:32;100901.63;;;12.41
64488;BMP280;50864;45.050;39.014;2022-09-27T02:39:59;100899.03;;;12.35
64488;BMP280;50864;45.050;39.014;2022-09-27T02:42:26;100908.16;;;12.34
64488;BMP280;50864;45.050;39.014;2022-09-27T02:44:53;100899.59;;;12.32
64488;BMP280;50864;45.050;39.014;2022-09-27T02:47:58;100901.00;;;12.30
64488;BMP280;50864;45.050;39.014;2022-09-27T02:53:37;100898.59;;;12.28
64488;BMP280;50864;45.050;39.014;2022-09-27T02:56:49;100896.47;;;12.25
64488;BMP280;50864;45.050;39.014;2022-09-27T02:59:43;100901.03;;;12.25
64488;BMP280;50864;45.050;39.014;2022-09-27T03:05:21;100893.31;;;12.23
64488;BMP280;50864;45.050;39.014;2022-09-27T03:07:48;100897.06;;;12.22
64488;BMP280;50864;45.050;39.014;2022-09-27T03:10:27;100895.75;;;12.20
64488;BMP280;50864;45.050;39.014;2022-09-27T03:12:55;100894.44;;;12.17
64488;BMP280;50864;45.050;39.014;2022-09-27T03:15:21;100895.31;;;12.13
64488;BMP280;50864;45.050;39.014;2022-09-27T03:17:50;100899.09;;;12.12
64488;BMP280;50864;45.050;39.014;2022-09-27T03:20:19;100892.13;;;12.11
64488;BMP280;50864;45.050;39.014;2022-09-27T03:22:46;100892.44;;;12.09
64488;BMP280;50864;45.050;39.014;2022-09-27T03:25:12;100881.16;;;12.07
64488;BMP280;50864;45.050;39.014;2022-09-27T03:27:39;100875.00;;;12.07
64488;BMP280;50864;45.050;39.014;2022-09-27T03:30:05;100878.22;;;12.09
64488;BMP280;50864;45.050;39.014;2022-09-27T03:32:32;100872.78;;;12.14
64488;BMP280;50864;45.050;39.014;2022-09-27T03:35:01;100872.22;;;12.17
64488;BMP280;50864;45.050;39.014;2022-09-27T03:37:26;100861.19;;;12.18
64488;BMP280;50864;45.050;39.014;2022-09-27T03:39:54;100874.59;;;12.18
64488;BMP280;50864;45.050;39.014;2022-09-27T03:42:20;100871.31;;;12.21
64488;BMP280;50864;45.050;39.014;2022-09-27T03:44:47;100867.56;;;12.22
64488;BMP280;50864;45.050;39.014;2022-09-27T03:47:13;100856.50;;;12.24
64488;BMP280;50864;45.050;39.014;2022-09-27T03:49:39;100862.12;;;12.27
64488;BMP280;50864;45.050;39.014;2022-09-27T03:52:05;100869.78;;;12.34
64488;BMP280;50864;45.050;39.014;2022-09-27T03:54:32;100866.19;;;12.44
64488;BMP280;50864;45.050;39.014;2022-09-27T03:56:57;100862.44;;;12.58
64488;BMP280;50864;45.050;39.014;2022-09-27T03:59:24;100862.69;;;12.75
64488;BMP280;50864;45.050;39.014;2022-09-27T04:01:57;100858.06;;;12.95
64488;BMP280;50864;45.050;39.014;2022-09-27T04:04:28;100864.13;;;13.14
64488;BMP280;50864;45.050;39.014;2022-09-27T04:06:54;100868.22;;;13.39
64488;BMP280;50864;45.050;39.014;2022-09-27T04:09:21;100868.63;;;13.73
64488;BMP280;50864;45.050;39.014;2022-09-27T04:11:52;100878.88;;;14.07
64488;BMP280;50864;45.050;39.014;2022-09-27T04:14:19;100872.34;;;14.44
64488;BMP280;50864;45.050;39.014;2022-09-27T04:16:48;100864.97;;;14.80
64488;BMP280;50864;45.050;39.014;2022-09-27T04:19:15;100865.94;;;15.15
64488;BMP280;50864;45.050;39.014;2022-09-27T04:21:41;100871.72;;;15.48
64488;BMP280;50864;45.050;39.014;2022-09-27T04:24:08;100868.16;;;15.78
64488;BMP280;50864;45.050;39.014;2022-09-27T04:26:37;100874.47;;;16.08
64488;BMP280;50864;45.050;39.014;2022-09-27T04:29:05;100869.97;;;16.38
64488;BMP280;50864;45.050;39.014;2022-09-27T04:31:31;100867.56;;;16.62
64488;BMP280;50864;45.050;39.014;2022-09-27T04:34:00;100866.72;;;16.79
64488;BMP280;50864;45.050;39.014;2022-09-27T04:36:26;100861.84;;;17.01
64488;BMP280;50864;45.050;39.014;2022-09-27T04:38:54;100852.06;;;17.18
64488;BMP280;50864;45.050;39.014;2022-09-27T04:41:22;100852.22;;;17.42
64488;BMP280;50864;45.050;39.014;2022-09-27T04:43:49;100868.59;;;17.66
64488;BMP280;50864;45.050;39.014;2022-09-27T04:46:15;100860.81;;;17.85
64488;BMP280;50864;45.050;39.014;2022-09-27T04:48:43;100857.41;;;18.09
64488;BMP280;50864;45.050;39.014;2022-09-27T04:51:09;100849.94;;;18.39
64488;BMP280;50864;45.050;39.014;2022-09-27T04:53:35;100847.69;;;18.65
64488;BMP280;50864;45.050;39.014;2022-09-27T04:56:02;100841.50;;;18.77
64488;BMP280;50864;45.050;39.014;2022-09-27T04:58:31;100832.22;;;18.78
64488;BMP280;50864;45.050;39.014;2022-09-27T05:00:59;100830.66;;;18.89
64488;BMP280;50864;45.050;39.014;2022-09-27T05:03:29;100837.97;;;19.00
64488;BMP280;50864;45.050;39.014;2022-09-27T05:05:55;100852.28;;;19.13
64488;BMP280;50864;45.050;39.014;2022-09-27T05:08:22;100842.69;;;19.28
64488;BMP280;50864;45.050;39.014;2022-09-27T05:10:54;100849.22;;;19.39
64488;BMP280;50864;45.050;39.014;2022-09-27T05:13:20;100842.09;;;19.62
64488;BMP280;50864;45.050;39.014;2022-09-27T05:15:46;100842.31;;;19.69
64488;BMP280;50864;45.050;39.014;2022-09-27T05:18:15;100831.66;;;19.76
64488;BMP280;50864;45.050;39.014;2022-09-27T05:20:45;100834.91;;;19.82
64488;BMP280;50864;45.050;39.014;2022-09-27T05:23:11;100830.03;;;20.03
64488;BMP280;50864;45.050;39.014;2022-09-27T05:25:38;100838.97;;;20.35
64488;BMP280;50864;45.050;39.014;2022-09-27T05:28:03;100839.53;;;20.56
64488;BMP280;50864;45.050;39.014;2022-09-27T05:30:30;100842.81;;;20.81
64488;BMP280;50864;45.050;39.014;2022-09-27T05:33:02;100836.50;;;21.11
64488;BMP280;50864;45.050;39.014;2022-09-27T05:35:33;100840.13;;;21.35
64488;BMP280;50864;45.050;39.014;2022-09-27T05:38:01;100843.69;;;21.39
64488;BMP280;50864;45.050;39.014;2022-09-27T05:40:27;100840.63;;;21.21
64488;BMP280;50864;45.050;39.014;2022-09-27T05:42:54;100836.44;;;21.27
64488;BMP280;50864;45.050;39.014;2022-09-27T05:45:22;100824.28;;;21.40
64488;BMP280;50864;45.050;39.014;2022-09-27T05:47:53;100831.88;;;21.31
64488;BMP280;50864;45.050;39.014;2022-09-27T05:50:20;100826.66;;;21.22
64488;BMP280;50864;45.050;39.014;2022-09-27T05:52:47;100832.50;;;21.24
64488;BMP280;50864;45.050;39.014;2022-09-27T05:55:14;100825.88;;;21.41
64488;BMP280;50864;45.050;39.014;2022-09-27T05:57:40;100820.25;;;21.53
64488;BMP280;50864;45.050;39.014;2022-09-27T06:00:08;100829.25;;;21.76
64488;BMP280;50864;45.050;39.014;2022-09-27T06:02:43;100820.88;;;22.08
64488;BMP280;50864;45.050;39.014;2022-09-27T06:05:13;100824.50;;;22.15
64488;BMP280;50864;45.050;39.014;2022-09-27T06:07:42;100823.47;;;22.01
64488;BMP280;50864;45.050;39.014;2022-09-27T06:10:08;100824.41;;;21.89
64488;BMP280;50864;45.050;39.014;2022-09-27T06:12:35;100824.31;;;22.05
64488;BMP280;50864;45.050;39.014;2022-09-27T06:15:01;100817.28;;;22.26
64488;BMP280;50864;45.050;39.014;2022-09-27T06:17:28;100823.53;;;22.27
64488;BMP280;50864;45.050;39.014;2022-09-27T06:19:54;100833.06;;;22.14
64488;BMP280;50864;45.050;39.014;2022-09-27T06:22:22;100826.84;;;22.17
64488;BMP280;50864;45.050;39.014;2022-09-27T06:24:49;100823.75;;;22.18
64488;BMP280;50864;45.050;39.014;2022-09-27T06:27:19;100828.59;;;22.28
64488;BMP280;50864;45.050;39.014;2022-09-27T06:29:45;100820.06;;;22.56
64488;BMP280;50864;45.050;39.014;2022-09-27T06:32:13;100812.47;;;22.99
64488;BMP280;50864;45.050;39.014;2022-09-27T06:34:39;100805.56;;;23.41
64488;BMP280;50864;45.050;39.014;2022-09-27T06:37:06;100804.53;;;23.53
64488;BMP280;50864;45.050;39.014;2022-09-27T06:39:32;100791.84;;;23.75
64488;BMP280;50864;45.050;39.014;2022-09-27T06:42:00;100790.06;;;23.96
64488;BMP280;50864;45.050;39.014;2022-09-27T06:44:26;100785.50;;;24.11
64488;BMP280;50864;45.050;39.014;2022-09-27T06:46:53;100789.56;;;24.35
64488;BMP280;50864;45.050;39.014;2022-09-27T06:49:21;100795.97;;;24.56
64488;BMP280;50864;45.050;39.014;2022-09-27T06:51:51;100783.72;;;24.33
64488;BMP280;50864;45.050;39.014;2022-09-27T06:54:18;100782.47;;;24.27
64488;BMP280;50864;45.050;39.014;2022-09-27T06:56:47;100783.66;;;24.26
64488;BMP280;50864;45.050;39.014;2022-09-27T06:59:13;100784.41;;;24.26
64488;BMP280;50864;45.050;39.014;2022-09-27T07:02:02;100775.47;;;24.29
64488;BMP280;50864;45.050;39.014;2022-09-27T07:04:31;100755.94;;;24.34
64488;BMP280;50864;45.050;39.014;2022-09-27T07:06:58;100755.13;;;24.27
64488;BMP280;50864;45.050;39.014;2022-09-27T07:09:25;100749.75;;;24.48
64488;BMP280;50864;45.050;39.014;2022-09-27T07:11:50;100750.50;;;24.38
64488;BMP280;50864;45.050;39.014;2022-09-27T07:14:16;100748.50;;;24.28
64488;BMP280;50864;45.050;39.014;2022-09-27T07:16:44;100745.25;;;24.08
64488;BMP280;50864;45.050;39.014;2022-09-27T07:19:10;100733.06;;;23.98
64488;BMP280;50864;45.050;39.014;2022-09-27T07:21:39;100735.53;;;24.14
64488;BMP280;50864;45.050;39.014;2022-09-27T07:24:05;100726.09;;;24.08
64488;BMP280;50864;45.050;39.014;2022-09-27T07:26:32;100733.50;;;24.04
64488;BMP280;50864;45.050;39.014;2022-09-27T07:28:58;100742.88;;;24.03
64488;BMP280;50864;45.050;39.014;2022-09-27T07:31:24;100734.47;;;24.36
64488;BMP280;50864;45.050;39.014;2022-09-27T07:33:54;100719.72;;;24.58
64488;BMP280;50864;45.050;39.014;2022-09-27T07:36:20;100729.91;;;24.68
64488;BMP280;50864;45.050;39.014;2022-09-27T07:38:47;100724.87;;;24.70
64488;BMP280;50864;45.050;39.014;2022-09-27T07:41:13;100722.94;;;24.71
64488;BMP280;50864;45.050;39.014;2022-09-27T07:43:41;100725.72;;;24.92
64488;BMP280;50864;45.050;39.014;2022-09-27T07:46:09;100721.03;;;25.14
64488;BMP280;50864;45.050;39.014;2022-09-27T07:48:35;100711.28;;;25.45
64488;BMP280;50864;45.050;39.014;2022-09-27T07:51:01;100721.47;;;25.58
64488;BMP280;50864;45.050;39.014;2022-09-27T07:53:33;100699.97;;;25.36
64488;BMP280;50864;45.050;39.014;2022-09-27T07:55:59;100691.34;;;25.09
64488;BMP280;50864;45.050;39.014;2022-09-27T07:58:26;100692.88;;;25.17
64488;BMP280;50864;45.050;39.014;2022-09-27T08:00:53;100699.94;;;25.28
64488;BMP280;50864;45.050;39.014;2022-09-27T08:03:21;100694.84;;;25.38
64488;BMP280;50864;45.050;39.014;2022-09-27T08:05:47;100699.91;;;25.53
64488;BMP280;50864;45.050;39.014;2022-09-27T08:08:15;100686.22;;;25.67
64488;BMP280;50864;45.050;39.014;2022-09-27T08:10:42;100686.22;;;25.53
64488;BMP280;50864;45.050;39.014;2022-09-27T08:13:13;100683.50;;;25.18
64488;BMP280;50864;45.050;39.014;2022-09-27T08:15:39;100665.84;;;24.91
64488;BMP280;50864;45.050;39.014;2022-09-27T08:18:07;100676.38;;;24.75
64488;BMP280;50864;45.050;39.014;2022-09-27T08:20:34;100666.19;;;24.64
64488;BMP280;50864;45.050;39.014;2022-09-27T08:23:01;100677.87;;;24.54
64488;BMP280;50864;45.050;39.014;2022-09-27T08:25:29;100677.16;;;24.64
64488;BMP280;50864;45.050;39.014;2022-09-27T08:27:58;100672.06;;;24.66
64488;BMP280;50864;45.050;39.014;2022-09-27T08:30:26;100673.66;;;24.78
64488;BMP280;50864;45.050;39.014;2022-09-27T08:32:56;100672.91;;;24.85
64488;BMP280;50864;45.050;39.014;2022-09-27T08:35:23;100665.47;;;24.96
64488;BMP280;50864;45.050;39.014;2022-09-27T08:37:57;100671.72;;;25.00
64488;BMP280;50864;45.050;39.014;2022-09-27T08:40:39;100672.50;;;24.90
64488;BMP280;50864;45.050;39.014;2022-09-27T08:48:13;100678.25;;;24.46
64488;BMP280;50864;45.050;39.014;2022-09-27T08:50:41;100673.53;;;24.39
64488;BMP280;50864;45.050;39.014;2022-09-27T08:55:50;100663.78;;;24.45
64488;BMP280;50864;45.050;39.014;2022-09-27T09:01:04;100653.69;;;24.74
64488;BMP280;50864;45.050;39.014;2022-09-27T09:03:37;100659.53;;;24.72
64488;BMP280;50864;45.050;39.014;2022-09-27T09:15:20;100639.28;;;25.48
64488;BMP280;50864;45.050;39.014;2022-09-27T09:20:24;100635.72;;;25.61
64488;BMP280;50864;45.050;39.014;2022-09-27T15:20:22;100630.09;;;26.14
64488;BMP280;50864;45.050;39.014;2022-09-27T15:22:50;100630.09;;;26.14
64488;BMP280;50864;45.050;39.014;2022-09-27T15:25:18;100387.06;;;22.39
64488;BMP280;50864;45.050;39.014;2022-09-27T15:27:50;100385.34;;;22.27
64488;BMP280;50864;45.050;39.014;2022-09-27T15:30:25;100384.16;;;22.21
64488;BMP280;50864;45.050;39.014;2022-09-27T15:32:53;100387.56;;;22.11
64488;BMP280;50864;45.050;39.014;2022-09-27T15:35:25;100393.66;;;21.98
64488;BMP280;50864;45.050;39.014;2022-09-27T15:38:09;100390.34;;;21.81
64488;BMP280;50864;45.050;39.014;2022-09-27T15:43:27;100408.97;;;21.46
64488;BMP280;50864;45.050;39.014;2022-09-27T15:45:59;100405.28;;;21.32
64488;BMP280;50864;45.050;39.014;2022-09-27T15:48:29;100400.03;;;21.16
64488;BMP280;50864;45.050;39.014;2022-09-27T15:50:57;100405.72;;;21.07
64488;BMP280;50864;45.050;39.014;2022-09-27T15:55:59;100401.62;;;20.94
64488;BMP280;50864;45.050;39.014;2022-09-27T15:58:25;100410.09;;;20.89
64488;BMP280;50864;45.050;39.014;2022-09-27T16:01:02;100406.53;;;20.85
64488;BMP280;50864;45.050;39.014;2022-09-27T16:03:31;100404.16;;;20.80
64488;BMP280;50864;45.050;39.014;2022-09-27T16:05:58;100407.91;;;20.72
64488;BMP280;50864;45.050;39.014;2022-09-27T16:08:25;100397.38;;;20.70
64488;BMP280;50864;45.050;39.014;2022-09-27T16:10:53;100402.03;;;20.70
64488;BMP280;50864;45.050;39.014;2022-09-27T16:13:21;100402.38;;;20.68
64488;BMP280;50864;45.050;39.014;2022-09-27T16:15:47;100395.41;;;20.67
64488;BMP280;50864;45.050;39.014;2022-09-27T16:18:14;100392.31;;;20.69
64488;BMP280;50864;45.050;39.014;2022-09-27T16:20:40;100391.50;;;20.68
64488;BMP280;50864;45.050;39.014;2022-09-27T16:23:06;100393.88;;;20.70
64488;BMP280;50864;45.050;39.014;2022-09-27T16:25:32;100390.03;;;20.71
64488;BMP280;50864;45.050;39.014;2022-09-27T16:28:00;100395.47;;;20.71
64488;BMP280;50864;45.050;39.014;2022-09-27T16:30:26;100392.31;;;20.69
64488;BMP280;50864;45.050;39.014;2022-09-27T16:32:53;100369.34;;;20.66
64488;BMP280;50864;45.050;39.014;2022-09-27T16:35:20;100389.53;;;20.65
64488;BMP280;50864;45.050;39.014;2022-09-27T16:37:47;100388.72;;;20.65
64488;BMP280;50864;45.050;39.014;2022-09-27T16:40:14;100383.66;;;20.63
64488;BMP280;50864;45.050;39.014;2022-09-27T16:42:42;100373.91;;;20.59
64488;BMP280;50864;45.050;39.014;2022-09-27T16:45:09;100386.63;;;20.55
64488;BMP280;50864;45.050;39.014;2022-09-27T16:47:35;100385.78;;;20.51
64488;BMP280;50864;45.050;39.014;2022-09-27T16:50:03;100380.66;;;20.46
64488;BMP280;50864;45.050;39.014;2022-09-27T16:52:48;100376.66;;;20.40
64488;BMP280;50864;45.050;39.014;2022-09-27T16:55:16;100379.66;;;20.35
64488;BMP280;50864;45.050;39.014;2022-09-27T16:57:44;100363.31;;;20.31
64488;BMP280;50864;45.050;39.014;2022-09-27T17:00:11;100367.53;;;20.29
64488;BMP280;50864;45.050;39.014;2022-09-27T17:02:37;100367.81;;;20.24
64488;BMP280;50864;45.050;39.014;2022-09-27T17:05:03;100370.13;;;20.22
64488;BMP280;50864;45.050;39.014;2022-09-27T17:07:30;100371.25;;;20.20
64488;BMP280;50864;45.050;39.014;2022-09-27T17:09:56;100375.87;;;20.16
64488;BMP280;50864;45.050;39.014;2022-09-27T17:12:22;100368.34;;;20.10
64488;BMP280;50864;45.050;39.014;2022-09-27T17:14:49;100376.78;;;20.05
64488;BMP280;50864;45.050;39.014;2022-09-27T17:17:16;100369.75;;;20.00
64488;BMP280;50864;45.050;39.014;2022-09-27T17:19:41;100377.03;;;19.96
64488;BMP280;50864;45.050;39.014;2022-09-27T17:22:08;100371.94;;;19.95
64488;BMP280;50864;45.050;39.014;2022-09-27T17:24:34;100380.84;;;19.92
64488;BMP280;50864;45.050;39.014;2022-09-27T17:27:00;100382.69;;;19.88
64488;BMP280;50864;45.050;39.014;2022-09-27T17:29:28;100382.59;;;19.84
64488;BMP280;50864;45.050;39.014;2022-09-27T17:31:55;100386.06;;;19.81
64488;BMP280;50864;45.050;39.014;2022-09-27T17:34:21;100377.84;;;19.78
64488;BMP280;50864;45.050;39.014;2022-09-27T17:36:47;100368.44;;;19.75
64488;BMP280;50864;45.050;39.014;2022-09-27T17:39:16;100378.44;;;19.71
64488;BMP280;50864;45.050;39.014;2022-09-27T17:41:42;100375.31;;;19.69
64488;BMP280;50864;45.050;39.014;2022-09-27T17:44:11;100381.81;;;19.64
64488;BMP280;50864;45.050;39.014;2022-09-27T17:46:38;100382.97;;;19.63
64488;BMP280;50864;45.050;39.014;2022-09-27T17:49:06;100388.31;;;19.60
64488;BMP280;50864;45.050;39.014;2022-09-27T17:51:52;100392.16;;;19.59
64488;BMP280;50864;45.050;39.014;2022-09-27T17:54:21;100387.97;;;19.61
64488;BMP280;50864;45.050;39.014;2022-09-27T17:56:49;100397.81;;;19.70
64488;BMP280;50864;45.050;39.014;2022-09-27T17:59:16;100387.91;;;19.77
64488;BMP280;50864;45.050;39.014;2022-09-27T18:01:44;100386.88;;;19.85
64488;BMP280;50864;45.050;39.014;2022-09-27T18:04:13;100397.97;;;19.96
64488;BMP280;50864;45.050;39.014;2022-09-27T18:06:41;100389.97;;;20.03
64488;BMP280;50864;45.050;39.014;2022-09-27T18:09:10;100396.91;;;20.00
64488;BMP280;50864;45.050;39.014;2022-09-27T18:11:38;100396.75;;;19.93
64488;BMP280;50864;45.050;39.014;2022-09-27T18:14:05;100392.31;;;19.85
64488;BMP280;50864;45.050;39.014;2022-09-27T18:16:34;100385.59;;;19.79
64488;BMP280;50864;45.050;39.014;2022-09-27T18:19:05;100390.16;;;19.75
64488;BMP280;50864;45.050;39.014;2022-09-27T18:21:32;100378.03;;;19.69
64488;BMP280;50864;45.050;39.014;2022-09-27T18:23:59;100375.94;;;19.62
64488;BMP280;50864;45.050;39.014;2022-09-27T18:26:27;100379.37;;;19.59
64488;BMP280;50864;45.050;39.014;2022-09-27T18:28:59;100371.53;;;19.54
64488;BMP280;50864;45.050;39.014;2022-09-27T18:31:25;100357.88;;;19.51
64488;BMP280;50864;45.050;39.014;2022-09-27T18:33:53;100355.44;;;19.46
64488;BMP280;50864;45.050;39.014;2022-09-27T18:36:21;100352.22;;;19.40
64488;BMP280;50864;45.050;39.014;2022-09-27T18:38:56;100352.59;;;19.39
64488;BMP280;50864;45.050;39.014;2022-09-27T18:41:24;100361.88;;;19.38
64488;BMP280;50864;45.050;39.014;2022-09-27T18:43:58;100356.28;;;19.31
64488;BMP280;50864;45.050;39.014;2022-09-27T18:46:28;100357.69;;;19.25
64488;BMP280;50864;45.050;39.014;2022-09-27T18:48:54;100354.91;;;19.21
64488;BMP280;50864;45.050;39.014;2022-09-27T18:51:21;100357.53;;;19.18
64488;BMP280;50864;45.050;39.014;2022-09-27T18:54:03;100360.25;;;19.18
64488;BMP280;50864;45.050;39.014;2022-09-27T18:56:30;100373.03;;;19.17
64488;BMP280;50864;45.050;39.014;2022-09-27T18:58:57;100373.22;;;19.08
64488;BMP280;50864;45.050;39.014;2022-09-27T19:01:23;100363.00;;;19.02
64488;BMP280;50864;45.050;39.014;2022-09-27T19:03:53;100357.41;;;18.95
64488;BMP280;50864;45.050;39.014;2022-09-27T19:06:21;100373.50;;;18.88
64488;BMP280;50864;45.050;39.014;2022-09-27T19:08:53;100367.13;;;18.80
64488;BMP280;50864;45.050;39.014;2022-09-27T19:11:20;100351.97;;;18.79
64488;BMP280;50864;45.050;39.014;2022-09-27T19:13:50;100355.44;;;18.76
64488;BMP280;50864;45.050;39.014;2022-09-27T19:16:17;100364.69;;;18.75
64488;BMP280;50864;45.050;39.014;2022-09-27T19:18:45;100376.91;;;18.69
64488;BMP280;50864;45.050;39.014;2022-09-27T19:21:13;100367.50;;;18.63
64488;BMP280;50864;45.050;39.014;2022-09-27T19:23:40;100363.00;;;18.55
64488;BMP280;50864;45.050;39.014;2022-09-27T19:26:11;100353.91;;;18.47
64488;BMP280;50864;45.050;39.014;2022-09-27T19:28:40;100352.53;;;18.38
64488;BMP280;50864;45.050;39.014;2022-09-27T19:31:08;100358.19;;;18.33
64488;BMP280;50864;45.050;39.014;2022-09-27T19:33:35;100367.28;;;18.25
64488;BMP280;50864;45.050;39.014;2022-09-27T19:36:03;100362.00;;;18.16
64488;BMP280;50864;45.050;39.014;2022-09-27T19:38:31;100354.00;;;18.07
64488;BMP280;50864;45.050;39.014;2022-09-27T19:40:57;100343.00;;;18.00
64488;BMP280;50864;45.050;39.014;2022-09-27T19:43:23;100344.94;;;18.00
64488;BMP280;50864;45.050;39.014;2022-09-27T19:45:49;100353.41;;;18.14
64488;BMP280;50864;45.050;39.014;2022-09-27T19:48:15;100352.94;;;18.24
64488;BMP280;50864;45.050;39.014;2022-09-27T19:50:41;100343.06;;;18.32
64488;BMP280;50864;45.050;39.014;2022-09-27T19:53:07;100325.75;;;18.36
64488;BMP280;50864;45.050;39.014;2022-09-27T19:55:34;100336.69;;;18.40
64488;BMP280;50864;45.050;39.014;2022-09-27T19:58:00;100339.75;;;18.38
64488;BMP280;50864;45.050;39.014;2022-09-27T20:00:26;100352.75;;;18.33
64488;BMP280;50864;45.050;39.014;2022-09-27T20:02:52;100347.59;;;18.28
64488;BMP280;50864;45.050;39.014;2022-09-27T20:05:18;100339.97;;;18.18
64488;BMP280;50864;45.050;39.014;2022-09-27T20:07:44;100336.97;;;18.07
64488;BMP280;50864;45.050;39.014;2022-09-27T20:10:10;100335.91;;;17.96
64488;BMP280;50864;45.050;39.014;2022-09-27T20:12:36;100331.44;;;17.88
64488;BMP280;50864;45.050;39.014;2022-09-27T20:15:03;100337.53;;;17.85
64488;BMP280;50864;45.050;39.014;2022-09-27T20:17:32;100325.03;;;17.80
64488;BMP280;50864;45.050;39.014;2022-09-27T20:19:58;100325.72;;;17.77
64488;BMP280;50864;45.050;39.014;2022-09-27T20:22:24;100339.94;;;17.74
64488;BMP280;50864;45.050;39.014;2022-09-27T20:24:50;100346.50;;;17.73
64488;BMP280;50864;45.050;39.014;2022-09-27T20:27:16;100350.66;;;17.71
64488;BMP280;50864;45.050;39.014;2022-09-27T20:29:44;100357.09;;;17.66
64488;BMP280;50864;45.050;39.014;2022-09-27T20:32:12;100357.34;;;17.61
64488;BMP280;50864;45.050;39.014;2022-09-27T20:34:38;100354.66;;;17.61
64488;BMP280;50864;45.050;39.014;2022-09-27T20:37:04;100350.03;;;17.62
64488;BMP280;50864;45.050;39.014;2022-09-27T20:39:33;100344.25;;;17.63
64488;BMP280;50864;45.050;39.014;2022-09-27T20:41:59;100360.91;;;17.65
64488;BMP280;50864;45.050;39.014;2022-09-27T20:44:25;100380.75;;;17.69
64488;BMP280;50864;45.050;39.014;2022-09-27T20:46:51;100374.22;;;17.70
64488;BMP280;50864;45.050;39.014;2022-09-27T20:49:18;100384.25;;;17.70
64488;BMP280;50864;45.050;39.014;2022-09-27T20:51:45;100379.22;;;17.68